Overview Statistics Trail Chart Weather Telemetry Raw packets
 

This is the latest recevied weather packets stored in our database for station/object SV9TNF-51. If no packets are shown the sender has not sent any weather packets the latest 10 day(s).

<< 108 109 110 111 112 113 114 >>
Time Temp. Humidity Pressure Rain* Wind** Luminosity Snow
1787844696 32.78° C 47% 1011.9 hPa 0 mm 0.89 m/s, 138° - -
1787844396 32.22° C 47% 1011.9 hPa 0 mm 2.68 m/s, 115° - -
1787844096 31.67° C 47% 1011.9 hPa 0 mm 10.73 m/s, 302° - -
1787843796 32.22° C 48% 1011.9 hPa 0 mm 6.71 m/s, 32° - -
1787843496 32.78° C 47% 1011.9 hPa 0 mm 8.94 m/s, 324° - -
1787843196 34.44° C 43% 1011.9 hPa 0 mm 2.24 m/s, 66° - -
1787842896 35.56° C 36% 1011.9 hPa 0 mm 1.79 m/s, 125° - -
1787842596 36.67° C 35% 1011.9 hPa 0 mm 0 m/s - -
1787842295 36.11° C 37% 1011.9 hPa 0 mm 0.89 m/s, 112° - -
1787841995 36.11° C 39% 1011.9 hPa 0 mm 0.45 m/s, 124° - -
1787841696 35.56° C 40% 1011.9 hPa 0 mm 1.79 m/s, 122° - -
1787841395 35.56° C 40% 1011.9 hPa 0 mm 2.68 m/s, 129° - -
1787841096 35.56° C 38% 1011.9 hPa 0 mm 0 m/s - -
1787840795 35° C 41% 1011.9 hPa 0 mm 1.34 m/s, 101° - -
1787840495 34.44° C 41% 1011.9 hPa 0 mm 0 m/s - -
1787840195 33.33° C 42% 1011.9 hPa 0 mm 4.92 m/s, 324° - -
1787839895 33.33° C 43% 1011.5 hPa 0 mm 6.26 m/s, 63° - -
1787839594 35° C 40% 1011.5 hPa 0 mm 1.79 m/s, 136° - -
1787839294 33.33° C 44% 1011.5 hPa 0 mm 5.36 m/s, 342° - -
1787838994 33.33° C 43% 1011.9 hPa 0 mm 8.05 m/s, 348° - -
1787838694 33.33° C 45% 1011.9 hPa 0 mm 6.71 m/s, 345° - -
1787838394 33.33° C 44% 1011.9 hPa 0 mm 3.13 m/s, 21° - -
1787838094 33.33° C 45% 1011.9 hPa 0 mm 7.15 m/s, 328° - -
1787837795 34.44° C 45% 1011.9 hPa 0 mm 7.6 m/s, 343° - -
1787837494 34.44° C 43% 1011.9 hPa 0 mm 10.28 m/s, 346° - -

* Rain latest hour (hover to see other rain measurements)
** Current wind speed in m/s (hover to see current wind gust speed)